Time;durP1;ratioP1;P1;durP2;ratioP2;P2;SDS_P1;SDS_P2;PMS_P1;PMS_P2;Temp;Humidity;BMP_temperature;BMP_pressure;BME280_temperature;BME280_humidity;BME280_pressure;Samples;Min_cycle;Max_cycle;Signal;HPM_P1;HPM_P2
2023/09/21 00:01:12;;;;;;;5.23;3.67;;;;;;;19.45;71.77;97240.31;5051593;28;20193;-84
2023/09/21 00:03:39;;;;;;;8.97;4.27;;;;;;;19.44;72.21;97239.47;5049766;28;20258;-80
2023/09/21 00:06:07;;;;;;;6.70;3.90;;;;;;;18.96;73.86;97231.88;5050177;28;20234;-81
2023/09/21 00:08:34;;;;;;;6.77;4.40;;;;;;;19.00;74.32;97239.38;5050062;28;20398;-79
2023/09/21 00:11:04;;;;;;;7.13;3.90;;;;;;;18.98;74.15;97246.53;5052042;28;20241;-76
2023/09/21 00:13:31;;;;;;;6.30;4.57;;;;;;;19.03;74.73;97246.19;5050445;28;20208;-83
2023/09/21 00:16:00;;;;;;;6.53;3.90;;;;;;;19.17;73.78;97240.72;5050519;28;20200;-78
2023/09/21 00:18:29;;;;;;;5.77;4.10;;;;;;;19.30;73.20;97230.94;5051322;28;20285;-74
2023/09/21 00:21:00;;;;;;;4.40;3.60;;;;;;;19.63;72.49;97243.28;5049521;28;20208;-81
2023/09/21 00:23:30;;;;;;;6.90;4.03;;;;;;;19.64;72.50;97240.50;5051507;28;20211;-77
2023/09/21 00:25:58;;;;;;;10.60;4.57;;;;;;;19.20;74.09;97230.84;5049549;28;20191;-83
2023/09/21 00:28:29;;;;;;;9.47;4.23;;;;;;;18.85;75.21;97203.81;5051268;28;20208;-83
2023/09/21 00:30:57;;;;;;;6.20;4.47;;;;;;;19.03;75.02;97223.41;5050576;28;20235;-75
2023/09/21 00:33:27;;;;;;;5.90;4.53;;;;;;;18.72;77.16;97237.19;5050620;28;20184;-77
2023/09/21 00:35:58;;;;;;;8.00;4.03;;;;;;;18.80;76.92;97229.56;5051801;28;20223;-79
2023/09/21 00:38:26;;;;;;;7.80;4.23;;;;;;;19.16;75.28;97234.66;5053527;28;20205;-77
2023/09/21 00:41:00;;;;;;;6.87;4.20;;;;;;;19.35;75.19;97242.78;5054780;28;20208;-77
2023/09/21 00:43:28;;;;;;;7.43;4.53;;;;;;;19.41;74.88;97234.44;5050847;28;20220;-74
2023/09/21 00:45:59;;;;;;;6.33;4.30;;;;;;;18.92;77.14;97231.25;5051032;28;20200;-73
2023/09/21 00:48:33;;;;;;;6.07;4.93;;;;;;;18.55;79.09;97237.59;5049871;28;20201;-74
2023/09/21 00:51:06;;;;;;;6.80;4.43;;;;;;;18.35;80.30;97231.19;5048988;28;20250;-80
2023/09/21 00:53:35;;;;;;;6.43;4.20;;;;;;;18.17;81.04;97219.41;5049316;28;20214;-74
2023/09/21 00:56:09;;;;;;;6.27;4.80;;;;;;;18.45;80.42;97239.22;5048824;28;20233;-75
2023/09/21 00:58:39;;;;;;;4.93;4.13;;;;;;;18.76;79.70;97243.88;5049262;28;20231;-74
2023/09/21 01:01:09;;;;;;;7.87;3.93;;;;;;;18.84;79.22;97238.88;5049739;28;20204;-74
2023/09/21 01:03:37;;;;;;;5.77;3.87;;;;;;;18.60;79.92;97235.47;5049427;28;20190;-74
2023/09/21 01:06:06;;;;;;;5.70;3.77;;;;;;;18.46;80.11;97227.78;5049888;28;20197;-84
2023/09/21 01:08:34;;;;;;;5.30;4.33;;;;;;;18.21;81.46;97236.59;5048602;28;20200;-75
2023/09/21 01:11:08;;;;;;;6.80;4.30;;;;;;;18.22;81.59;97227.78;5050042;28;20802;-83
2023/09/21 01:13:36;;;;;;;5.93;4.10;;;;;;;18.32;81.38;97230.56;5048889;28;20199;-74
2023/09/21 01:16:05;;;;;;;7.17;4.40;;;;;;;18.29;80.90;97225.53;5048632;28;20617;-75
2023/09/21 01:18:32;;;;;;;6.67;4.50;;;;;;;18.24;80.68;97228.50;5049730;28;20205;-75
2023/09/21 01:21:04;;;;;;;8.00;4.90;;;;;;;18.15;80.87;97223.09;5047311;28;20203;-75
2023/09/21 01:23:52;;;;;;;6.90;4.70;;;;;;;17.85;82.15;97231.38;5048756;28;20201;-75
2023/09/21 01:26:20;;;;;;;7.07;5.37;;;;;;;17.74;82.38;97224.28;5048462;28;20204;-74
2023/09/21 01:28:48;;;;;;;8.67;4.50;;;;;;;17.61;82.63;97223.50;5049842;28;20266;-74
2023/09/21 01:31:17;;;;;;;6.87;4.30;;;;;;;17.57;82.82;97195.84;5049118;28;20230;-75
2023/09/21 01:33:45;;;;;;;7.83;4.80;;;;;;;17.59;82.69;97207.06;5048825;28;20195;-75
2023/09/21 01:36:15;;;;;;;8.93;5.37;;;;;;;17.81;81.86;97219.44;5050182;28;20286;-75
2023/09/21 01:38:46;;;;;;;7.53;4.77;;;;;;;17.86;81.54;97212.09;5048425;28;20254;-73
2023/09/21 01:41:17;;;;;;;6.03;4.63;;;;;;;17.99;80.64;97206.81;5049823;28;20203;-74
2023/09/21 01:43:44;;;;;;;8.50;5.03;;;;;;;18.09;79.99;97219.16;5046939;28;20214;-74
2023/09/21 01:46:22;;;;;;;7.00;4.80;;;;;;;18.32;78.64;97209.59;5049522;28;20207;-74
2023/09/21 01:48:50;;;;;;;9.93;4.83;;;;;;;18.53;77.93;97208.00;5049269;28;20200;-74
2023/09/21 01:51:17;;;;;;;6.73;5.53;;;;;;;18.51;77.37;97209.91;5047941;28;20715;-74
2023/09/21 01:53:45;;;;;;;11.63;4.80;;;;;;;18.74;76.23;97205.56;5049789;28;20195;-74
2023/09/21 01:56:16;;;;;;;6.33;4.90;;;;;;;18.72;76.76;97217.97;5047889;28;20683;-79
2023/09/21 01:58:43;;;;;;;7.97;4.67;;;;;;;18.52;76.57;97209.81;5048252;28;20744;-75
2023/09/21 02:01:16;;;;;;;7.47;5.20;;;;;;;18.66;75.90;97207.00;5047027;28;20678;-73
2023/09/21 02:03:44;;;;;;;6.90;5.10;;;;;;;18.50;76.04;97200.38;5047397;28;20560;-74
2023/09/21 02:06:12;;;;;;;8.37;5.90;;;;;;;18.40;76.26;97202.81;5047934;28;20199;-74
2023/09/21 02:08:40;;;;;;;9.53;5.30;;;;;;;18.50;75.82;97200.38;5046294;28;20702;-75
2023/09/21 02:11:08;;;;;;;6.67;5.23;;;;;;;18.43;76.41;97201.75;5047693;28;20294;-74
2023/09/21 02:13:35;;;;;;;9.07;4.93;;;;;;;18.52;75.96;97203.72;5045975;28;20573;-74
2023/09/21 02:16:02;;;;;;;7.53;4.93;;;;;;;18.53;75.03;97200.16;5047703;28;20292;-74
2023/09/21 02:18:30;;;;;;;7.17;4.97;;;;;;;18.55;75.60;97206.09;5046561;28;20208;-75
2023/09/21 02:20:59;;;;;;;9.33;5.03;;;;;;;18.71;74.96;97209.28;5047236;28;20216;-77
2023/09/21 02:23:28;;;;;;;13.83;5.10;;;;;;;18.75;75.09;97207.25;5048842;28;20294;-74
2023/09/21 02:25:55;;;;;;;9.50;5.13;;;;;;;18.49;75.42;97203.94;5047238;28;20219;-74
2023/09/21 02:28:22;;;;;;;10.53;6.03;;;;;;;18.41;75.75;97198.41;5048893;28;20283;-75
2023/09/21 02:30:51;;;;;;;7.57;5.20;;;;;;;18.06;77.18;97187.06;5045746;28;20234;-75
2023/09/21 02:33:19;;;;;;;8.33;5.70;;;;;;;17.70;78.84;97188.78;5048723;28;20293;-76
2023/09/21 02:35:47;;;;;;;6.70;5.50;;;;;;;17.61;79.42;97193.84;5047712;28;20212;-84
2023/09/21 02:38:21;;;;;;;7.97;5.30;;;;;;;17.60;79.85;97185.13;5047933;28;20665;-75
2023/09/21 02:40:48;;;;;;;8.17;6.47;;;;;;;17.51;80.59;97180.56;5030836;28;20221;-74
2023/09/21 02:43:16;;;;;;;6.63;4.97;;;;;;;17.53;80.83;97185.69;5045550;28;20225;-75
2023/09/21 02:45:45;;;;;;;8.57;5.57;;;;;;;17.80;79.55;97181.91;5047369;28;20272;-76
2023/09/21 02:48:15;;;;;;;7.97;5.00;;;;;;;17.99;78.53;97180.59;5045656;28;20309;-75
2023/09/21 02:50:47;;;;;;;8.83;4.97;;;;;;;18.11;78.03;97191.03;5046999;28;20382;-78
2023/09/21 02:53:15;;;;;;;6.33;4.63;;;;;;;17.87;78.75;97185.78;5046018;28;20199;-80
2023/09/21 02:55:44;;;;;;;6.63;4.33;;;;;;;17.78;79.19;97194.28;5047514;28;20208;-78
2023/09/21 02:58:13;;;;;;;9.63;5.20;;;;;;;17.92;78.66;97203.81;5047188;28;20199;-75
2023/09/21 03:00:53;;;;;;;10.40;7.03;;;;;;;18.15;77.49;97207.38;5045485;28;20202;-79
2023/09/21 03:03:21;;;;;;;10.30;5.10;;;;;;;17.84;78.44;97206.97;5046900;28;20639;-78
2023/09/21 03:05:51;;;;;;;6.00;4.87;;;;;;;17.26;80.71;97198.91;5045238;28;20207;-86
2023/09/21 03:08:19;;;;;;;11.47;5.67;;;;;;;17.14;81.54;97201.53;5046773;28;20198;-74
2023/09/21 03:10:53;;;;;;;6.60;4.83;;;;;;;16.91;82.34;97203.13;5046546;28;20305;-75
2023/09/21 03:13:21;;;;;;;6.10;5.00;;;;;;;17.02;82.29;97198.00;5045546;28;20648;-86
2023/09/21 03:15:58;;;;;;;9.30;5.53;;;;;;;16.98;82.59;97196.53;5046653;28;20201;-77
2023/09/21 03:18:28;;;;;;;9.70;4.87;;;;;;;16.63;82.75;97140.56;5044958;28;20701;-75
2023/09/21 03:20:57;;;;;;;8.87;5.53;;;;;;;16.99;83.54;97198.19;5046196;28;20198;-76
2023/09/21 03:23:26;;;;;;;7.47;5.30;;;;;;;16.80;84.44;97196.00;5045801;28;20296;-74
2023/09/21 03:25:54;;;;;;;8.27;5.67;;;;;;;16.90;84.58;97193.59;5047036;28;20195;-76
2023/09/21 03:28:24;;;;;;;8.20;5.20;;;;;;;16.91;84.70;97196.13;5047953;28;20268;-83
2023/09/21 03:30:56;;;;;;;10.93;5.37;;;;;;;16.79;84.96;97194.34;5046108;28;20232;-75
2023/09/21 03:33:23;;;;;;;7.50;5.27;;;;;;;16.75;84.97;97189.41;5046810;28;20209;-74
2023/09/21 03:35:51;;;;;;;14.83;5.97;;;;;;;16.92;84.84;97191.72;5044765;28;20202;-75
2023/09/21 03:38:21;;;;;;;9.30;5.83;;;;;;;16.91;84.57;97190.03;5047432;28;20209;-76
2023/09/21 03:40:49;;;;;;;7.80;5.80;;;;;;;17.00;83.53;97194.66;5044495;28;20252;-75
2023/09/21 03:43:18;;;;;;;10.83;6.00;;;;;;;16.76;84.15;97188.47;5026664;28;20198;-78
2023/09/21 03:45:47;;;;;;;10.40;6.17;;;;;;;16.84;83.93;97173.94;5026596;28;20211;-75
2023/09/21 03:48:16;;;;;;;8.87;5.80;;;;;;;17.00;82.92;97184.19;5026583;28;20203;-75
2023/09/21 03:50:44;;;;;;;10.63;7.47;;;;;;;16.92;83.01;97191.72;5028158;28;20675;-74
2023/09/21 03:53:14;;;;;;;11.03;6.20;;;;;;;17.07;82.52;97188.03;5024683;28;20764;-84
2023/09/21 03:55:41;;;;;;;13.10;7.30;;;;;;;17.13;81.93;97182.38;5026840;28;20191;-74
2023/09/21 03:58:10;;;;;;;8.03;6.03;;;;;;;17.12;82.07;97185.13;5026183;28;20227;-74
2023/09/21 04:00:37;;;;;;;18.87;12.97;;;;;;;17.15;81.92;97183.13;5027111;28;20209;-85
2023/09/21 04:03:10;;;;;;;18.83;11.07;;;;;;;17.14;82.32;97180.59;5026830;28;20728;-77
2023/09/21 04:05:51;;;;;;;13.57;8.63;;;;;;;17.02;81.41;97183.13;5025000;28;20567;-78
2023/09/21 04:08:18;;;;;;;19.07;12.87;;;;;;;17.05;81.58;97192.53;5026262;28;20681;-75
2023/09/21 04:10:45;;;;;;;9.10;6.60;;;;;;;16.93;82.02;97188.16;5025038;28;20208;-80
2023/09/21 04:13:14;;;;;;;8.17;6.10;;;;;;;17.01;81.79;97186.69;5026142;28;20894;-78
2023/09/21 04:15:41;;;;;;;13.43;6.40;;;;;;;17.38;80.20;97190.19;5027487;28;20676;-83
2023/09/21 04:18:09;;;;;;;8.47;5.40;;;;;;;17.51;79.04;97195.44;5024955;28;20228;-76
2023/09/21 04:20:40;;;;;;;9.27;5.77;;;;;;;17.64;78.14;97186.59;5009527;28;20198;-76
2023/09/21 04:23:08;;;;;;;10.43;5.90;;;;;;;17.75;77.98;97194.53;5025597;28;20207;-76
2023/09/21 04:25:36;;;;;;;11.63;6.20;;;;;;;17.56;77.72;97191.53;5027499;28;20194;-75
2023/09/21 04:28:05;;;;;;;9.93;7.10;;;;;;;17.48;78.48;97191.22;5008572;28;20191;-84
2023/09/21 04:30:34;;;;;;;15.80;9.87;;;;;;;17.31;79.12;97198.59;5026550;28;20205;-74
2023/09/21 04:33:02;;;;;;;9.60;6.03;;;;;;;17.22;79.69;97201.84;5027813;28;20237;-78
2023/09/21 04:35:30;;;;;;;7.80;5.83;;;;;;;17.37;79.13;97195.56;5028211;28;20203;-85
2023/09/21 04:37:58;;;;;;;10.93;5.70;;;;;;;17.55;78.23;97195.13;5031134;28;20383;-83
2023/09/21 04:40:26;;;;;;;10.67;5.73;;;;;;;17.77;77.05;97208.34;5030285;28;20226;-79
2023/09/21 04:42:56;;;;;;;12.93;7.60;;;;;;;18.15;75.71;97202.13;5014406;28;20206;-79
2023/09/21 04:45:27;;;;;;;9.57;7.00;;;;;;;18.00;75.65;97204.06;5030847;28;20204;-83
2023/09/21 04:48:03;;;;;;;14.37;8.60;;;;;;;18.05;75.80;97195.88;5033138;28;20229;-83
2023/09/21 04:50:35;;;;;;;15.00;6.97;;;;;;;18.25;75.20;97203.13;5034237;28;20291;-76
2023/09/21 04:53:03;;;;;;;8.97;5.33;;;;;;;18.38;74.35;97209.13;5031675;28;20223;-77
2023/09/21 04:55:31;;;;;;;11.87;7.10;;;;;;;18.71;73.30;97217.16;5040437;28;20541;-75
2023/09/21 04:57:59;;;;;;;11.03;6.70;;;;;;;18.76;73.26;97215.00;5054743;28;20204;-85
2023/09/21 05:00:27;;;;;;;10.93;5.97;;;;;;;18.80;73.28;97228.72;5069370;28;20209;-86
2023/09/21 05:02:55;;;;;;;13.40;6.43;;;;;;;19.02;72.35;97229.59;5053667;28;20240;-76
2023/09/21 05:05:26;;;;;;;7.97;5.50;;;;;;;19.14;71.43;97226.06;5065904;28;20231;-86
2023/09/21 05:07:54;;;;;;;8.90;6.40;;;;;;;19.09;71.91;97229.97;5054954;28;20200;-81
2023/09/21 05:10:21;;;;;;;10.13;6.20;;;;;;;18.96;72.74;97224.81;5049502;28;20238;-74
2023/09/21 05:12:51;;;;;;;8.87;5.57;;;;;;;18.48;74.39;97234.59;5052377;28;20312;-86
2023/09/21 05:15:22;;;;;;;7.83;4.97;;;;;;;18.14;75.98;97230.13;5049473;28;20399;-84
2023/09/21 05:17:49;;;;;;;10.73;5.83;;;;;;;17.88;77.42;97216.28;5049932;28;20632;-82
2023/09/21 05:20:17;;;;;;;11.47;5.70;;;;;;;17.74;78.33;97218.22;5050906;28;20198;-83
2023/09/21 05:22:44;;;;;;;7.30;5.43;;;;;;;17.74;79.09;97228.72;5050121;28;20199;-80
2023/09/21 05:25:11;;;;;;;8.07;5.47;;;;;;;18.09;77.96;97218.31;5050119;28;20206;-76
2023/09/21 05:27:40;;;;;;;9.77;5.57;;;;;;;18.26;77.24;97217.91;5045258;28;20206;-79
2023/09/21 05:30:09;;;;;;;7.90;4.77;;;;;;;18.53;76.26;97216.72;5050165;28;20289;-76
2023/09/21 05:32:38;;;;;;;8.33;6.00;;;;;;;18.58;75.32;97217.22;5047307;28;20267;-79
2023/09/21 05:35:10;;;;;;;10.30;5.60;;;;;;;18.63;75.24;97224.72;5050618;28;20319;-80
2023/09/21 05:37:38;;;;;;;9.47;5.67;;;;;;;18.63;75.26;97224.72;5050680;28;20242;-83
2023/09/21 05:40:06;;;;;;;8.63;5.57;;;;;;;18.98;73.99;97227.34;5051439;28;20200;-84
2023/09/21 05:42:35;;;;;;;12.33;5.90;;;;;;;19.10;72.85;97224.59;5051284;28;20284;-77
2023/09/21 05:45:03;;;;;;;6.97;4.67;;;;;;;19.34;72.21;97216.66;5048359;28;20270;-81
2023/09/21 05:47:32;;;;;;;8.87;4.90;;;;;;;19.61;71.77;97209.25;5052933;28;20215;-78
2023/09/21 05:50:00;;;;;;;8.60;5.60;;;;;;;19.67;70.85;97205.28;5049171;28;20218;-78
2023/09/21 05:52:30;;;;;;;7.87;4.90;;;;;;;19.74;70.84;97209.09;5050454;28;20716;-73
2023/09/21 05:54:57;;;;;;;9.33;5.33;;;;;;;19.97;70.19;97208.09;5049176;28;20186;-76
2023/09/21 05:57:25;;;;;;;8.27;5.70;;;;;;;20.22;69.63;97213.06;5047943;28;20783;-73
2023/09/21 05:59:52;;;;;;;10.20;5.23;;;;;;;20.23;69.27;97210.31;5049055;28;20255;-73
2023/09/21 06:02:19;;;;;;;10.73;5.00;;;;;;;20.37;69.58;97216.22;5043631;28;20263;-76
2023/09/21 06:04:49;;;;;;;7.60;4.97;;;;;;;20.53;68.43;97220.09;5047184;28;20688;-80
2023/09/21 06:07:16;;;;;;;10.00;5.03;;;;;;;20.70;68.00;97219.56;5047689;28;20280;-74
2023/09/21 06:09:44;;;;;;;10.33;5.10;;;;;;;21.04;66.90;97209.69;5047201;28;20629;-71
2023/09/21 06:12:11;;;;;;;8.20;4.90;;;;;;;21.14;66.84;97209.75;5046660;28;20610;-79
2023/09/21 06:14:39;;;;;;;10.67;5.50;;;;;;;21.40;65.64;97208.31;5046244;28;20252;-78
2023/09/21 06:17:06;;;;;;;13.50;5.27;;;;;;;21.63;64.42;97218.56;5047139;28;20236;-75
2023/09/21 06:19:35;;;;;;;10.70;5.87;;;;;;;21.62;64.15;97218.66;5039191;28;20199;-76
2023/09/21 06:22:02;;;;;;;6.43;4.97;;;;;;;21.52;64.36;97226.56;5047915;28;20723;-78
2023/09/21 06:24:31;;;;;;;10.57;5.20;;;;;;;21.28;64.13;97169.88;5046460;28;20210;-84
2023/09/21 06:26:58;;;;;;;6.97;4.57;;;;;;;21.66;63.75;97225.34;5049855;28;20597;-80
2023/09/21 06:29:26;;;;;;;11.87;5.23;;;;;;;21.66;64.07;97201.63;5048446;28;20237;-79
2023/09/21 06:31:55;;;;;;;7.83;4.90;;;;;;;21.88;63.45;97221.72;5047466;28;20223;-80
2023/09/21 06:34:25;;;;;;;13.40;4.67;;;;;;;22.01;62.66;97225.75;5048235;28;20226;-76
2023/09/21 06:36:56;;;;;;;10.43;5.13;;;;;;;22.28;62.07;97210.09;5047090;28;20208;-78
2023/09/21 06:39:23;;;;;;;7.60;4.87;;;;;;;22.41;61.40;97201.91;5048570;28;20211;-74
2023/09/21 06:41:51;;;;;;;10.57;6.47;;;;;;;22.55;60.96;97207.63;5049011;28;20753;-78
2023/09/21 06:44:18;;;;;;;8.33;5.87;;;;;;;22.95;60.69;97214.56;5048326;28;20195;-76
2023/09/21 06:46:46;;;;;;;9.93;5.47;;;;;;;22.80;60.18;97221.25;5048958;28;20198;-73
2023/09/21 06:49:13;;;;;;;8.43;5.23;;;;;;;22.62;60.50;97211.41;5030539;28;20252;-74
2023/09/21 06:51:41;;;;;;;7.23;4.83;;;;;;;22.77;61.39;97213.63;5027541;28;20235;-81
2023/09/21 06:54:08;;;;;;;10.77;5.47;;;;;;;22.63;60.45;97215.69;5025295;28;20590;-74
2023/09/21 06:56:35;;;;;;;13.93;6.23;;;;;;;22.79;60.01;97211.66;5026488;28;20397;-73
2023/09/21 06:59:06;;;;;;;11.50;6.80;;;;;;;22.85;59.77;97214.59;5024906;28;20221;-77
2023/09/21 07:02:14;;;;;;;9.03;5.67;;;;;;;22.76;60.54;97219.84;5027791;28;20307;-72
2023/09/21 07:04:50;;;;;;;10.13;5.80;;;;;;;22.94;59.75;97224.28;5047373;28;20768;-76
2023/09/21 07:07:18;;;;;;;15.80;5.77;;;;;;;22.57;60.50;97210.94;5048170;28;20199;-76
2023/09/21 07:09:45;;;;;;;11.93;6.27;;;;;;;22.78;60.56;97226.66;5039395;28;20298;-81
2023/09/21 07:12:12;;;;;;;11.20;6.63;;;;;;;22.80;59.72;97232.66;5040887;28;20308;-81
2023/09/21 07:14:41;;;;;;;12.90;6.83;;;;;;;22.73;60.26;97228.06;5049096;28;20252;-75
2023/09/21 07:17:08;;;;;;;13.10;6.37;;;;;;;22.92;60.10;97226.22;5048439;28;20871;-84
2023/09/21 07:19:36;;;;;;;10.00;5.60;;;;;;;22.79;59.42;97225.72;5049576;28;21172;-82
2023/09/21 07:22:04;;;;;;;11.90;5.83;;;;;;;22.86;59.22;97223.31;5049951;28;20476;-73
2023/09/21 07:24:31;;;;;;;12.43;8.67;;;;;;;23.04;59.52;97219.00;5049328;28;20689;-79
2023/09/21 07:27:00;;;;;;;6.90;4.87;;;;;;;23.09;59.17;97209.66;5048973;28;20221;-86
2023/09/21 07:29:30;;;;;;;18.17;5.60;;;;;;;23.44;57.76;97217.78;5046783;28;20699;-82
2023/09/21 07:31:59;;;;;;;10.60;5.87;;;;;;;23.71;57.48;97219.63;5048569;28;20326;-78
2023/09/21 07:34:27;;;;;;;8.83;4.93;;;;;;;23.84;56.58;97220.13;5045104;28;20211;-82
2023/09/21 07:36:56;;;;;;;14.47;7.50;;;;;;;23.99;56.37;97215.97;5042119;28;20394;-75
2023/09/21 07:39:23;;;;;;;10.33;5.40;;;;;;;23.87;56.68;97219.81;5048338;28;20587;-84
2023/09/21 07:41:50;;;;;;;13.03;5.40;;;;;;;23.65;56.67;97182.34;5026468;28;20335;-78
2023/09/21 07:44:18;;;;;;;10.57;5.40;;;;;;;24.00;55.61;97219.47;5028650;28;20659;-81
2023/09/21 07:46:45;;;;;;;12.53;6.23;;;;;;;24.27;55.18;97226.56;5041383;28;20199;-79
2023/09/21 07:49:13;;;;;;;13.23;5.43;;;;;;;24.35;54.45;97218.69;5027466;28;20223;-82
2023/09/21 07:51:40;;;;;;;14.07;5.63;;;;;;;24.54;55.28;97229.16;5024751;28;20292;-80
2023/09/21 07:54:08;;;;;;;9.40;5.17;;;;;;;24.44;54.35;97228.41;5032174;28;20524;-82
2023/09/21 07:56:36;;;;;;;10.80;5.00;;;;;;;24.70;53.05;97226.63;5038724;28;20723;-84
2023/09/21 07:59:09;;;;;;;17.60;6.43;;;;;;;24.83;52.67;97219.16;5040430;28;20211;-80
2023/09/21 08:01:37;;;;;;;10.43;4.97;;;;;;;24.70;53.01;97218.69;5049158;28;20291;-78
2023/09/21 08:04:06;;;;;;;9.77;5.90;;;;;;;24.82;53.08;97206.88;5045400;28;20211;-83
2023/09/21 08:06:34;;;;;;;14.10;5.90;;;;;;;24.92;52.61;97213.75;5047918;28;20196;-77
2023/09/21 08:09:02;;;;;;;8.27;5.47;;;;;;;24.99;51.62;97211.34;5049661;28;20270;-84
2023/09/21 08:11:32;;;;;;;11.63;7.10;;;;;;;25.13;52.63;97218.72;5051935;28;20250;-85
2023/09/21 08:13:59;;;;;;;10.50;5.80;;;;;;;24.81;52.61;97197.28;5055761;28;20247;-80
2023/09/21 08:16:27;;;;;;;10.87;5.50;;;;;;;25.01;51.16;97212.00;5049798;28;20391;-78
2023/09/21 08:18:55;;;;;;;7.70;5.23;;;;;;;25.27;50.26;97206.69;5049276;28;20200;-82
2023/09/21 08:21:22;;;;;;;8.43;4.87;;;;;;;24.95;51.55;97213.47;5048657;28;20610;-78
2023/09/21 08:23:50;;;;;;;13.07;6.00;;;;;;;25.23;51.32;97202.69;5046956;28;20237;-79
2023/09/21 08:26:18;;;;;;;10.57;5.70;;;;;;;25.46;50.14;97212.66;5047736;28;20617;-75
2023/09/21 08:28:47;;;;;;;6.27;4.83;;;;;;;25.61;49.82;97196.97;5048989;28;20188;-84
2023/09/21 08:31:14;;;;;;;11.03;5.33;;;;;;;25.67;50.06;97202.47;5049884;28;20296;-88
2023/09/21 08:33:41;;;;;;;8.63;4.90;;;;;;;25.48;49.97;97210.69;5059967;28;20272;-71
2023/09/21 08:36:09;;;;;;;9.23;4.67;;;;;;;25.04;50.19;97178.06;5055424;28;20256;-76
2023/09/21 08:38:36;;;;;;;11.57;4.60;;;;;;;25.42;49.99;97195.41;5046740;28;20665;-79
2023/09/21 08:41:04;;;;;;;6.87;4.13;;;;;;;25.37;50.30;97202.94;5049609;28;20209;-80
2023/09/21 08:43:32;;;;;;;10.80;5.60;;;;;;;25.79;49.29;97187.94;5044033;28;20212;-76
2023/09/21 08:46:00;;;;;;;11.53;5.33;;;;;;;26.08;49.03;97198.16;5049160;28;20202;-75
2023/09/21 08:48:31;;;;;;;7.77;4.87;;;;;;;26.17;47.90;97186.56;5048869;28;20199;-81
2023/09/21 08:51:01;;;;;;;9.93;5.47;;;;;;;26.13;47.86;97179.91;5047301;28;20687;-85
2023/09/21 08:53:28;;;;;;;9.60;5.17;;;;;;;26.35;47.97;97191.75;5049727;28;20225;-84
2023/09/21 08:55:57;;;;;;;9.53;4.93;;;;;;;26.39;47.81;97183.31;5046843;28;20267;-82
2023/09/21 08:58:27;;;;;;;7.53;4.73;;;;;;;26.36;47.51;97169.50;5049944;28;20219;-84
2023/09/21 09:00:56;;;;;;;5.13;4.40;;;;;;;26.53;48.20;97185.28;5046424;28;20209;-83
2023/09/21 09:03:25;;;;;;;8.77;4.80;;;;;;;26.51;47.50;97194.41;5049234;28;20280;-78
2023/09/21 09:05:58;;;;;;;13.60;5.87;;;;;;;26.53;47.77;97193.25;5049755;28;20198;-79
2023/09/21 09:08:26;;;;;;;11.37;4.83;;;;;;;26.38;46.79;97196.72;5047759;28;20208;-78
2023/09/21 09:10:54;;;;;;;8.37;6.13;;;;;;;26.34;47.50;97182.09;5049510;28;20204;-78
2023/09/21 09:13:30;;;;;;;9.67;5.37;;;;;;;26.40;47.17;97176.13;5047740;28;20655;-83
2023/09/21 09:15:59;;;;;;;11.10;5.43;;;;;;;26.46;47.59;97192.25;5049356;28;20252;-77
2023/09/21 09:18:31;;;;;;;6.90;5.20;;;;;;;26.11;47.58;97175.78;5042965;28;20226;-81
2023/09/21 09:20:59;;;;;;;9.60;6.17;;;;;;;26.23;47.65;97188.59;5045929;28;20595;-78
2023/09/21 09:23:26;;;;;;;8.07;4.10;;;;;;;26.46;47.43;97191.44;5049722;28;20802;-78
2023/09/21 09:25:54;;;;;;;12.73;5.30;;;;;;;26.32;47.42;97194.72;5048104;28;20728;-82
2023/09/21 09:28:22;;;;;;;7.27;4.33;;;;;;;26.18;47.71;97179.44;5036755;28;20217;-80
2023/09/21 09:30:49;;;;;;;11.93;5.40;;;;;;;26.31;47.42;97190.41;5051686;28;20193;-82
2023/09/21 09:33:16;;;;;;;7.57;4.77;;;;;;;26.03;48.06;97196.97;5037664;28;20253;-80
2023/09/21 09:35:46;;;;;;;8.00;4.60;;;;;;;26.21;47.27;97200.38;5049374;28;20194;-80
2023/09/21 09:38:14;;;;;;;7.37;4.27;;;;;;;26.11;47.70;97202.34;5049238;28;20585;-80
2023/09/21 09:40:42;;;;;;;5.70;4.40;;;;;;;26.08;48.18;97192.88;5049040;28;20198;-78
2023/09/21 09:43:15;;;;;;;9.23;4.80;;;;;;;26.27;47.99;97199.72;5047237;28;20429;-78
2023/09/21 09:45:45;;;;;;;6.80;4.80;;;;;;;26.46;47.41;97202.06;5049307;28;20776;-80
2023/09/21 09:48:19;;;;;;;10.80;5.03;;;;;;;26.27;47.26;97166.03;5047376;28;20226;-78
2023/09/21 09:50:55;;;;;;;5.70;3.90;;;;;;;26.20;47.86;97183.59;5048981;28;20202;-75
2023/09/21 09:53:24;;;;;;;6.87;4.03;;;;;;;26.08;48.60;97168.97;5048403;28;20335;-77
2023/09/21 09:55:56;;;;;;;7.53;4.83;;;;;;;25.97;48.62;97168.41;5047754;28;20194;-77
2023/09/21 09:58:26;;;;;;;6.77;4.40;;;;;;;25.93;48.29;97178.50;5049319;28;20205;-79
2023/09/21 10:00:55;;;;;;;5.07;4.30;;;;;;;26.02;48.18;97174.06;5047267;28;20197;-74
2023/09/21 10:03:23;;;;;;;11.07;5.47;;;;;;;26.15;47.88;97156.69;5048781;28;20233;-77
2023/09/21 10:05:51;;;;;;;6.67;5.17;;;;;;;26.29;47.38;97149.91;5047167;28;20267;-73
2023/09/21 10:08:21;;;;;;;6.03;4.37;;;;;;;26.50;47.14;97163.56;5046692;28;20190;-80
2023/09/21 10:10:52;;;;;;;7.03;3.97;;;;;;;26.25;48.23;97168.00;5048250;28;20213;-82
2023/09/21 10:13:25;;;;;;;8.37;4.60;;;;;;;26.32;47.47;97157.53;5048984;28;20253;-83
2023/09/21 10:16:02;;;;;;;10.07;4.73;;;;;;;26.38;48.20;97146.25;5048218;28;20210;-79
2023/09/21 10:18:36;;;;;;;8.73;4.93;;;;;;;26.35;47.44;97128.00;5047890;28;20225;-81
2023/09/21 10:21:35;;;;;;;8.20;4.57;;;;;;;26.68;46.75;97158.91;5050830;28;20201;-77
2023/09/21 10:24:13;;;;;;;7.13;4.67;;;;;;;26.73;47.37;97151.25;5051164;28;20628;-80
2023/09/21 10:26:53;;;;;;;5.83;4.17;;;;;;;26.69;46.61;97144.59;5046463;28;20209;-80
2023/09/21 10:30:02;;;;;;;7.70;4.20;;;;;;;26.60;46.93;97135.00;5045900;28;20236;-78
2023/09/21 10:33:25;;;;;;;5.70;4.07;;;;;;;27.13;45.63;97113.16;5028020;28;20302;-74
2023/09/21 10:36:50;;;;;;;4.70;4.30;;;;;;;27.06;45.88;97139.59;5026898;28;20694;-84
2023/09/21 10:40:00;;;;;;;7.50;4.50;;;;;;;27.29;45.34;97127.22;5045956;28;20630;-76
2023/09/21 10:42:33;;;;;;;6.23;4.17;;;;;;;27.35;45.05;97123.91;5048981;28;20229;-82
2023/09/21 10:45:06;;;;;;;6.83;5.23;;;;;;;27.00;46.03;97121.66;5048308;28;20285;-75
2023/09/21 10:47:51;;;;;;;6.07;4.00;;;;;;;26.94;46.22;97110.88;5047508;28;20574;-79
2023/09/21 10:50:21;;;;;;;12.27;4.93;;;;;;;26.92;45.84;97103.06;5046663;28;20202;-80
2023/09/21 10:52:51;;;;;;;6.20;4.87;;;;;;;27.11;45.54;97097.38;5045545;28;20240;-77
2023/09/21 10:55:20;;;;;;;5.30;4.37;;;;;;;27.23;44.98;97100.47;5050365;28;20197;-84
2023/09/21 10:57:50;;;;;;;7.97;4.20;;;;;;;27.13;44.98;97106.00;5047108;28;20198;-85
2023/09/21 11:00:20;;;;;;;6.50;4.07;;;;;;;26.69;45.63;97069.38;5062241;28;20190;-79
2023/09/21 11:02:49;;;;;;;10.43;5.80;;;;;;;27.14;45.22;97096.22;5046654;28;20194;-78
2023/09/21 11:05:19;;;;;;;6.73;4.33;;;;;;;27.14;45.20;97096.22;5046905;28;20680;-89
2023/09/21 11:07:51;;;;;;;6.77;5.37;;;;;;;27.07;45.57;97100.53;5048047;28;20198;-87
2023/09/21 11:10:18;;;;;;;5.77;4.73;;;;;;;26.95;45.38;97096.59;5046146;28;20377;-77
2023/09/21 11:12:48;;;;;;;9.50;4.30;;;;;;;26.85;45.83;97090.63;5042905;28;20218;-76
2023/09/21 11:15:16;;;;;;;9.37;4.73;;;;;;;27.01;45.84;97075.47;5040635;28;20198;-83
2023/09/21 11:17:46;;;;;;;9.10;5.03;;;;;;;27.32;45.28;97080.84;5047169;28;20233;-79
2023/09/21 11:20:20;;;;;;;13.67;6.30;;;;;;;27.39;45.32;97074.69;5047033;28;20213;-78
2023/09/21 11:22:50;;;;;;;13.03;5.23;;;;;;;27.46;44.39;97073.97;5045634;28;20288;-78
2023/09/21 11:25:20;;;;;;;8.83;4.43;;;;;;;27.67;44.24;97072.38;5049701;28;20181;-83
2023/09/21 11:27:49;;;;;;;8.03;4.73;;;;;;;27.81;44.33;97076.13;5046556;28;20992;-79
2023/09/21 11:30:16;;;;;;;8.77;5.40;;;;;;;27.88;44.45;97069.09;5048407;28;20258;-80
2023/09/21 11:32:47;;;;;;;6.53;4.13;;;;;;;27.97;43.84;97070.72;5047593;28;20197;-78
2023/09/21 11:35:16;;;;;;;6.87;4.83;;;;;;;27.75;44.61;97066.19;5046324;28;20591;-77
2023/09/21 11:37:45;;;;;;;8.33;4.17;;;;;;;27.72;44.75;97069.19;5047275;28;20205;-76
2023/09/21 11:40:14;;;;;;;10.03;4.43;;;;;;;27.48;44.76;97050.69;5044974;28;20212;-76
2023/09/21 11:42:45;;;;;;;8.63;4.70;;;;;;;27.44;45.24;97049.38;5046395;28;20233;-77
2023/09/21 11:45:24;;;;;;;5.90;4.57;;;;;;;27.65;44.28;97057.59;5046236;28;20225;-75